sensor_id;sensor_type;location;lat;lon;timestamp;pressure;altitude;pressure_sealevel;temperature;humidity
35888;BME280;21990;42.540;23.496;2023-03-16T00:01:06;92550.38;;;3.51;88.36
35888;BME280;21990;42.540;23.496;2023-03-16T00:03:32;92550.16;;;3.44;88.94
35888;BME280;21990;42.540;23.496;2023-03-16T00:05:57;92551.63;;;3.50;88.57
35888;BME280;21990;42.540;23.496;2023-03-16T00:08:23;92554.41;;;3.50;88.95
35888;BME280;21990;42.540;23.496;2023-03-16T00:10:48;92544.56;;;3.49;88.17
35888;BME280;21990;42.540;23.496;2023-03-16T00:13:16;92555.69;;;3.55;88.37
35888;BME280;21990;42.540;23.496;2023-03-16T00:15:52;92555.44;;;3.53;88.15
35888;BME280;21990;42.540;23.496;2023-03-16T00:18:19;92554.41;;;3.50;88.40
35888;BME280;21990;42.540;23.496;2023-03-16T00:20:49;92556.75;;;3.41;88.67
35888;BME280;21990;42.540;23.496;2023-03-16T00:23:15;92562.56;;;3.43;88.91
35888;BME280;21990;42.540;23.496;2023-03-16T00:25:40;92563.09;;;3.35;88.99
35888;BME280;21990;42.540;23.496;2023-03-16T00:28:06;92569.19;;;3.28;88.87
35888;BME280;21990;42.540;23.496;2023-03-16T00:30:31;92566.41;;;3.28;88.84
35888;BME280;21990;42.540;23.496;2023-03-16T00:32:57;92572.47;;;3.27;88.74
35888;BME280;21990;42.540;23.496;2023-03-16T00:35:24;92570.22;;;3.25;88.57
35888;BME280;21990;42.540;23.496;2023-03-16T00:37:49;92576.03;;;3.16;88.75
35888;BME280;21990;42.540;23.496;2023-03-16T00:40:15;92579.59;;;3.17;88.82
35888;BME280;21990;42.540;23.496;2023-03-16T00:42:41;92588.19;;;3.13;88.45
35888;BME280;21990;42.540;23.496;2023-03-16T00:45:07;92581.38;;;3.09;88.96
35888;BME280;21990;42.540;23.496;2023-03-16T00:47:34;92583.16;;;3.06;89.40
35888;BME280;21990;42.540;23.496;2023-03-16T00:50:00;92581.91;;;3.07;89.36
35888;BME280;21990;42.540;23.496;2023-03-16T00:52:27;92588.72;;;3.01;89.37
35888;BME280;21990;42.540;23.496;2023-03-16T00:54:53;92594.03;;;2.99;89.19
35888;BME280;21990;42.540;23.496;2023-03-16T00:57:21;92597.31;;;2.97;89.33
35888;BME280;21990;42.540;23.496;2023-03-16T00:59:48;92577.88;;;2.92;88.90
35888;BME280;21990;42.540;23.496;2023-03-16T01:02:16;92581.88;;;2.96;89.46
35888;BME280;21990;42.540;23.496;2023-03-16T01:04:43;92587.97;;;2.95;89.50
35888;BME280;21990;42.540;23.496;2023-03-16T01:07:12;92583.44;;;2.92;89.50
35888;BME280;21990;42.540;23.496;2023-03-16T01:09:39;92575.34;;;2.82;89.77
35888;BME280;21990;42.540;23.496;2023-03-16T01:12:07;92587.22;;;2.83;89.63
35888;BME280;21990;42.540;23.496;2023-03-16T01:14:34;92584.97;;;2.70;89.64
35888;BME280;21990;42.540;23.496;2023-03-16T01:17:00;92575.84;;;2.70;89.49
35888;BME280;21990;42.540;23.496;2023-03-16T01:19:27;92588.22;;;2.69;89.88
35888;BME280;21990;42.540;23.496;2023-03-16T01:21:53;92593.28;;;2.65;89.88
35888;BME280;21990;42.540;23.496;2023-03-16T01:24:18;92591.28;;;2.71;90.04
35888;BME280;21990;42.540;23.496;2023-03-16T01:26:44;92599.34;;;2.69;89.70
35888;BME280;21990;42.540;23.496;2023-03-16T01:29:10;92589.25;;;2.66;90.34
35888;BME280;21990;42.540;23.496;2023-03-16T01:31:37;92598.13;;;2.64;89.62
35888;BME280;21990;42.540;23.496;2023-03-16T01:34:03;92602.66;;;2.56;89.76
35888;BME280;21990;42.540;23.496;2023-03-16T01:36:29;92594.06;;;2.54;90.14
35888;BME280;21990;42.540;23.496;2023-03-16T01:38:57;92604.16;;;2.52;90.09
35888;BME280;21990;42.540;23.496;2023-03-16T01:41:23;92594.81;;;2.55;90.41
35888;BME280;21990;42.540;23.496;2023-03-16T01:43:50;92612.25;;;2.50;90.46
35888;BME280;21990;42.540;23.496;2023-03-16T01:46:23;92610.72;;;2.54;90.25
35888;BME280;21990;42.540;23.496;2023-03-16T01:51:42;92606.94;;;2.46;89.65
35888;BME280;21990;42.540;23.496;2023-03-16T01:59:26;92618.31;;;2.48;89.37
35888;BME280;21990;42.540;23.496;2023-03-16T02:01:54;92607.44;;;2.50;88.96
35888;BME280;21990;42.540;23.496;2023-03-16T02:06:48;92616.03;;;2.47;88.84
35888;BME280;21990;42.540;23.496;2023-03-16T02:09:15;92623.38;;;2.44;88.70
35888;BME280;21990;42.540;23.496;2023-03-16T02:11:41;92615.78;;;2.39;88.88
35888;BME280;21990;42.540;23.496;2023-03-16T02:14:09;92631.69;;;2.38;88.87
35888;BME280;21990;42.540;23.496;2023-03-16T02:16:35;92634.47;;;2.33;88.96
35888;BME280;21990;42.540;23.496;2023-03-16T02:19:01;92637.75;;;2.31;89.15
35888;BME280;21990;42.540;23.496;2023-03-16T02:23:58;92634.47;;;2.27;89.55
35888;BME280;21990;42.540;23.496;2023-03-16T02:26:31;92645.56;;;2.27;89.63
35888;BME280;21990;42.540;23.496;2023-03-16T02:31:38;92655.13;;;2.15;90.01
35888;BME280;21990;42.540;23.496;2023-03-16T02:34:04;92656.41;;;2.14;89.97
35888;BME280;21990;42.540;23.496;2023-03-16T02:36:31;92657.16;;;2.15;90.33
35888;BME280;21990;42.540;23.496;2023-03-16T02:38:58;92659.97;;;2.20;90.50
35888;BME280;21990;42.540;23.496;2023-03-16T02:41:23;92658.44;;;2.19;89.78
35888;BME280;21990;42.540;23.496;2023-03-16T02:43:54;92659.41;;;2.11;90.11
35888;BME280;21990;42.540;23.496;2023-03-16T02:46:24;92663.22;;;2.19;89.96
35888;BME280;21990;42.540;23.496;2023-03-16T02:48:57;92666.25;;;2.15;90.33
35888;BME280;21990;42.540;23.496;2023-03-16T02:51:24;92669.28;;;2.06;89.82
35888;BME280;21990;42.540;23.496;2023-03-16T02:53:49;92666.25;;;2.10;90.29
35888;BME280;21990;42.540;23.496;2023-03-16T02:56:15;92673.81;;;2.09;90.32
35888;BME280;21990;42.540;23.496;2023-03-16T02:58:41;92664.97;;;2.11;90.16
35888;BME280;21990;42.540;23.496;2023-03-16T03:01:06;92679.38;;;2.15;90.00
35888;BME280;21990;42.540;23.496;2023-03-16T03:03:32;92671.31;;;2.17;89.58
35888;BME280;21990;42.540;23.496;2023-03-16T03:05:59;92682.69;;;2.19;90.38
35888;BME280;21990;42.540;23.496;2023-03-16T03:08:24;92681.41;;;2.09;89.68
35888;BME280;21990;42.540;23.496;2023-03-16T03:10:50;92688.22;;;2.08;90.07
35888;BME280;21990;42.540;23.496;2023-03-16T03:13:15;92686.19;;;2.08;90.16
35888;BME280;21990;42.540;23.496;2023-03-16T03:15:41;92686.72;;;2.12;89.82
35888;BME280;21990;42.540;23.496;2023-03-16T03:18:06;92678.34;;;2.07;89.97
35888;BME280;21990;42.540;23.496;2023-03-16T03:20:33;92697.56;;;2.10;90.11
35888;BME280;21990;42.540;23.496;2023-03-16T03:22:58;92696.56;;;2.13;90.09
35888;BME280;21990;42.540;23.496;2023-03-16T03:25:24;92689.72;;;2.09;89.34
35888;BME280;21990;42.540;23.496;2023-03-16T03:27:50;92697.28;;;2.03;89.48
35888;BME280;21990;42.540;23.496;2023-03-16T03:30:21;92697.78;;;2.01;90.04
35888;BME280;21990;42.540;23.496;2023-03-16T03:32:47;92698.56;;;2.02;88.96
35888;BME280;21990;42.540;23.496;2023-03-16T03:35:14;92704.56;;;1.95;88.89
35888;BME280;21990;42.540;23.496;2023-03-16T03:37:41;92699.53;;;1.93;88.72
35888;BME280;21990;42.540;23.496;2023-03-16T03:40:07;92710.63;;;1.99;88.98
35888;BME280;21990;42.540;23.496;2023-03-16T03:42:34;92705.06;;;1.93;89.27
35888;BME280;21990;42.540;23.496;2023-03-16T03:45:00;92707.13;;;1.98;88.71
35888;BME280;21990;42.540;23.496;2023-03-16T03:47:25;92724.00;;;1.95;88.63
35888;BME280;21990;42.540;23.496;2023-03-16T03:49:51;92710.09;;;1.89;88.27
35888;BME280;21990;42.540;23.496;2023-03-16T03:52:16;92719.97;;;1.96;88.53
35888;BME280;21990;42.540;23.496;2023-03-16T03:54:42;92722.75;;;1.96;88.20
35888;BME280;21990;42.540;23.496;2023-03-16T03:57:08;92722.75;;;1.96;88.00
35888;BME280;21990;42.540;23.496;2023-03-16T03:59:33;92733.63;;;1.94;88.17
35888;BME280;21990;42.540;23.496;2023-03-16T04:01:59;92726.28;;;1.90;87.76
35888;BME280;21990;42.540;23.496;2023-03-16T04:04:25;92742.44;;;1.92;87.65
35888;BME280;21990;42.540;23.496;2023-03-16T04:06:50;92740.66;;;1.89;87.74
35888;BME280;21990;42.540;23.496;2023-03-16T04:09:16;92731.06;;;1.90;87.65
35888;BME280;21990;42.540;23.496;2023-03-16T04:11:41;92747.22;;;1.91;87.98
35888;BME280;21990;42.540;23.496;2023-03-16T04:14:07;92743.16;;;1.87;86.85
35888;BME280;21990;42.540;23.496;2023-03-16T04:16:33;92734.06;;;1.81;86.72
35888;BME280;21990;42.540;23.496;2023-03-16T04:18:58;92743.38;;;1.78;86.96
35888;BME280;21990;42.540;23.496;2023-03-16T04:21:24;92737.03;;;1.72;87.19
35888;BME280;21990;42.540;23.496;2023-03-16T04:23:50;92741.09;;;1.76;86.98
35888;BME280;21990;42.540;23.496;2023-03-16T04:26:20;92747.38;;;1.71;85.99
35888;BME280;21990;42.540;23.496;2023-03-16T04:28:46;92754.72;;;1.74;86.93
35888;BME280;21990;42.540;23.496;2023-03-16T04:31:12;92750.47;;;1.79;85.91
35888;BME280;21990;42.540;23.496;2023-03-16T04:33:38;92757.06;;;1.87;86.25
35888;BME280;21990;42.540;23.496;2023-03-16T04:36:04;92772.22;;;1.91;85.88
35888;BME280;21990;42.540;23.496;2023-03-16T04:38:31;92778.53;;;1.86;85.75
35888;BME280;21990;42.540;23.496;2023-03-16T04:41:01;92774.94;;;1.80;85.39
35888;BME280;21990;42.540;23.496;2023-03-16T04:43:27;92785.81;;;1.78;85.76
35888;BME280;21990;42.540;23.496;2023-03-16T04:45:53;92793.31;;;1.72;86.70
35888;BME280;21990;42.540;23.496;2023-03-16T04:48:19;92805.19;;;1.73;86.89
35888;BME280;21990;42.540;23.496;2023-03-16T04:50:46;92807.44;;;1.69;86.61
35888;BME280;21990;42.540;23.496;2023-03-16T04:53:12;92811.22;;;1.66;88.04
35888;BME280;21990;42.540;23.496;2023-03-16T04:55:37;92813.16;;;1.60;88.06
35888;BME280;21990;42.540;23.496;2023-03-16T04:58:03;92814.38;;;1.53;88.25
35888;BME280;21990;42.540;23.496;2023-03-16T05:00:29;92815.41;;;1.56;88.52
35888;BME280;21990;42.540;23.496;2023-03-16T05:02:54;92816.47;;;1.58;88.30
35888;BME280;21990;42.540;23.496;2023-03-16T05:05:20;92817.44;;;1.55;88.52
35888;BME280;21990;42.540;23.496;2023-03-16T05:07:46;92819.78;;;1.62;88.47
35888;BME280;21990;42.540;23.496;2023-03-16T05:10:14;92822.03;;;1.64;87.64
35888;BME280;21990;42.540;23.496;2023-03-16T05:12:40;92811.34;;;1.51;87.91
35888;BME280;21990;42.540;23.496;2023-03-16T05:15:06;92820.00;;;1.59;87.94
35888;BME280;21990;42.540;23.496;2023-03-16T05:17:32;92815.94;;;1.60;88.07
35888;BME280;21990;42.540;23.496;2023-03-16T05:19:58;92819.78;;;1.62;87.26
35888;BME280;21990;42.540;23.496;2023-03-16T05:22:24;92820.78;;;1.65;86.58
35888;BME280;21990;42.540;23.496;2023-03-16T05:24:50;92836.50;;;1.73;86.54
35888;BME280;21990;42.540;23.496;2023-03-16T05:27:16;92836.50;;;1.73;86.39
35888;BME280;21990;42.540;23.496;2023-03-16T05:29:42;92832.72;;;1.71;87.04
35888;BME280;21990;42.540;23.496;2023-03-16T05:32:14;92842.28;;;1.70;86.69
35888;BME280;21990;42.540;23.496;2023-03-16T05:34:41;92839.50;;;1.70;86.60
35888;BME280;21990;42.540;23.496;2023-03-16T05:37:08;92840.06;;;1.74;86.31
35888;BME280;21990;42.540;23.496;2023-03-16T05:39:33;92838.53;;;1.73;85.87
35888;BME280;21990;42.540;23.496;2023-03-16T05:41:59;92839.28;;;1.73;85.48
35888;BME280;21990;42.540;23.496;2023-03-16T05:44:25;92836.03;;;1.75;85.72
35888;BME280;21990;42.540;23.496;2023-03-16T05:46:50;92828.63;;;1.66;85.80
35888;BME280;21990;42.540;23.496;2023-03-16T05:49:16;92843.22;;;1.61;86.50
35888;BME280;21990;42.540;23.496;2023-03-16T05:51:42;92850.09;;;1.66;86.66
35888;BME280;21990;42.540;23.496;2023-03-16T05:54:07;92852.03;;;1.60;86.80
35888;BME280;21990;42.540;23.496;2023-03-16T05:56:33;92852.03;;;1.60;86.40
35888;BME280;21990;42.540;23.496;2023-03-16T05:58:59;92859.09;;;1.55;86.31
35888;BME280;21990;42.540;23.496;2023-03-16T06:01:25;92861.34;;;1.51;86.27
35888;BME280;21990;42.540;23.496;2023-03-16T06:03:51;92871.16;;;1.52;86.12
35888;BME280;21990;42.540;23.496;2023-03-16T06:06:18;92861.91;;;1.61;85.88
35888;BME280;21990;42.540;23.496;2023-03-16T06:08:44;92873.78;;;1.61;85.70
35888;BME280;21990;42.540;23.496;2023-03-16T06:11:10;92873.00;;;1.61;85.82
35888;BME280;21990;42.540;23.496;2023-03-16T06:13:37;92878.56;;;1.61;86.76
35888;BME280;21990;42.540;23.496;2023-03-16T06:16:03;92887.16;;;1.63;86.63
35888;BME280;21990;42.540;23.496;2023-03-16T06:18:31;92887.34;;;1.54;87.14
35888;BME280;21990;42.540;23.496;2023-03-16T06:20:56;92885.25;;;1.49;87.26
35888;BME280;21990;42.540;23.496;2023-03-16T06:23:22;92894.66;;;1.51;87.06
35888;BME280;21990;42.540;23.496;2023-03-16T06:25:47;92910.78;;;1.53;87.73
35888;BME280;21990;42.540;23.496;2023-03-16T06:28:13;92907.22;;;1.47;87.91
35888;BME280;21990;42.540;23.496;2023-03-16T06:30:40;92905.91;;;1.42;87.30
35888;BME280;21990;42.540;23.496;2023-03-16T06:33:05;92912.69;;;1.41;88.29
35888;BME280;21990;42.540;23.496;2023-03-16T06:35:31;92922.09;;;1.43;87.95
35888;BME280;21990;42.540;23.496;2023-03-16T06:37:56;92915.47;;;1.41;88.76
35888;BME280;21990;42.540;23.496;2023-03-16T06:40:22;92922.31;;;1.40;88.61
35888;BME280;21990;42.540;23.496;2023-03-16T06:42:48;92921.25;;;1.37;88.83
35888;BME280;21990;42.540;23.496;2023-03-16T06:45:13;92924.56;;;1.41;88.80
35888;BME280;21990;42.540;23.496;2023-03-16T06:47:41;92926.09;;;1.42;88.30
35888;BME280;21990;42.540;23.496;2023-03-16T06:50:08;92921.56;;;1.45;88.94
35888;BME280;21990;42.540;23.496;2023-03-16T06:52:34;92926.13;;;1.48;88.81
35888;BME280;21990;42.540;23.496;2023-03-16T06:55:00;92924.19;;;1.54;88.22
35888;BME280;21990;42.540;23.496;2023-03-16T06:57:25;92915.25;;;1.44;88.31
35888;BME280;21990;42.540;23.496;2023-03-16T06:59:51;92927.44;;;1.53;88.21
35888;BME280;21990;42.540;23.496;2023-03-16T07:02:16;92939.16;;;1.62;88.00
35888;BME280;21990;42.540;23.496;2023-03-16T07:04:44;92933.06;;;1.58;87.11
35888;BME280;21990;42.540;23.496;2023-03-16T07:07:10;92951.59;;;1.67;87.06
35888;BME280;21990;42.540;23.496;2023-03-16T07:09:36;92944.75;;;1.68;87.16
35888;BME280;21990;42.540;23.496;2023-03-16T07:12:02;92941.75;;;1.71;86.89
35888;BME280;21990;42.540;23.496;2023-03-16T07:14:28;92947.13;;;1.75;86.11
35888;BME280;21990;42.540;23.496;2023-03-16T07:16:53;92948.63;;;1.76;86.36
35888;BME280;21990;42.540;23.496;2023-03-16T07:19:19;92950.16;;;1.77;86.43
35888;BME280;21990;42.540;23.496;2023-03-16T07:21:44;92954.16;;;1.76;86.01
35888;BME280;21990;42.540;23.496;2023-03-16T07:24:10;92957.94;;;1.73;85.72
35888;BME280;21990;42.540;23.496;2023-03-16T07:26:37;92956.41;;;1.72;85.52
35888;BME280;21990;42.540;23.496;2023-03-16T07:29:03;92950.44;;;1.79;85.82
35888;BME280;21990;42.540;23.496;2023-03-16T07:31:31;92964.34;;;1.84;86.01
35888;BME280;21990;42.540;23.496;2023-03-16T07:33:57;92958.31;;;1.86;85.78
35888;BME280;21990;42.540;23.496;2023-03-16T07:36:23;92965.19;;;1.90;85.19
35888;BME280;21990;42.540;23.496;2023-03-16T07:38:48;92967.97;;;1.90;85.08
35888;BME280;21990;42.540;23.496;2023-03-16T07:41:16;92972.97;;;1.86;84.78
35888;BME280;21990;42.540;23.496;2023-03-16T07:43:42;92973.16;;;1.83;85.58
35888;BME280;21990;42.540;23.496;2023-03-16T07:46:10;92976.94;;;1.80;85.89
35888;BME280;21990;42.540;23.496;2023-03-16T07:48:39;92971.38;;;1.80;85.85
35888;BME280;21990;42.540;23.496;2023-03-16T07:51:04;92978.94;;;1.79;86.03
35888;BME280;21990;42.540;23.496;2023-03-16T07:53:30;92986.88;;;1.86;85.63
35888;BME280;21990;42.540;23.496;2023-03-16T07:55:56;92982.03;;;1.87;86.24
35888;BME280;21990;42.540;23.496;2023-03-16T07:58:22;92978.78;;;1.88;85.30
35888;BME280;21990;42.540;23.496;2023-03-16T08:00:47;92980.97;;;1.79;85.39
35888;BME280;21990;42.540;23.496;2023-03-16T08:03:13;92996.16;;;1.83;86.05
35888;BME280;21990;42.540;23.496;2023-03-16T08:05:38;92985.88;;;1.89;86.24
35888;BME280;21990;42.540;23.496;2023-03-16T08:08:04;92996.47;;;1.91;85.09
35888;BME280;21990;42.540;23.496;2023-03-16T08:10:30;92997.56;;;1.99;85.68
35888;BME280;21990;42.540;23.496;2023-03-16T08:12:56;92996.78;;;1.99;84.59
35888;BME280;21990;42.540;23.496;2023-03-16T08:15:21;93003.41;;;2.01;84.95
35888;BME280;21990;42.540;23.496;2023-03-16T08:17:47;93001.66;;;2.04;85.03
35888;BME280;21990;42.540;23.496;2023-03-16T08:20:13;92997.63;;;2.05;85.52
35888;BME280;21990;42.540;23.496;2023-03-16T08:22:41;93009.00;;;2.07;83.87
35888;BME280;21990;42.540;23.496;2023-03-16T08:25:07;92999.19;;;2.11;84.68
35888;BME280;21990;42.540;23.496;2023-03-16T08:27:36;92995.22;;;2.18;85.05
35888;BME280;21990;42.540;23.496;2023-03-16T08:30:06;93014.44;;;2.21;84.73
35888;BME280;21990;42.540;23.496;2023-03-16T08:32:35;93007.13;;;2.24;84.24
35888;BME280;21990;42.540;23.496;2023-03-16T08:35:01;93016.00;;;2.28;83.83
35888;BME280;21990;42.540;23.496;2023-03-16T08:37:27;93013.25;;;2.33;83.53
35888;BME280;21990;42.540;23.496;2023-03-16T08:39:53;93035.56;;;2.39;83.91
35888;BME280;21990;42.540;23.496;2023-03-16T08:42:18;93028.03;;;2.45;83.73
35888;BME280;21990;42.540;23.496;2023-03-16T08:44:45;93030.59;;;2.49;83.36
35888;BME280;21990;42.540;23.496;2023-03-16T08:47:15;93037.94;;;2.52;82.81
35888;BME280;21990;42.540;23.496;2023-03-16T08:49:41;93035.63;;;2.50;82.85
35888;BME280;21990;42.540;23.496;2023-03-16T08:52:07;93029.38;;;2.61;83.00
35888;BME280;21990;42.540;23.496;2023-03-16T08:54:35;93037.25;;;2.62;81.70
35888;BME280;21990;42.540;23.496;2023-03-16T08:57:01;93044.88;;;2.67;83.18
35888;BME280;21990;42.540;23.496;2023-03-16T08:59:27;93037.31;;;2.73;82.39
35888;BME280;21990;42.540;23.496;2023-03-16T09:01:52;93044.97;;;2.78;82.10
35888;BME280;21990;42.540;23.496;2023-03-16T09:04:18;93049.03;;;2.83;82.54
35888;BME280;21990;42.540;23.496;2023-03-16T09:06:46;93043.72;;;2.85;81.57
35888;BME280;21990;42.540;23.496;2023-03-16T09:09:12;93043.25;;;2.92;82.13
35888;BME280;21990;42.540;23.496;2023-03-16T09:11:38;93048.56;;;2.90;81.18
35888;BME280;21990;42.540;23.496;2023-03-16T09:14:04;93043.47;;;2.83;81.65
35888;BME280;21990;42.540;23.496;2023-03-16T09:16:31;93040.16;;;2.79;81.29
35888;BME280;21990;42.540;23.496;2023-03-16T09:18:57;93042.72;;;2.82;82.47
35888;BME280;21990;42.540;23.496;2023-03-16T09:21:23;93043.72;;;2.79;83.40
35888;BME280;21990;42.540;23.496;2023-03-16T09:23:50;93051.59;;;2.86;81.96
35888;BME280;21990;42.540;23.496;2023-03-16T09:26:15;93046.03;;;2.86;82.62
35888;BME280;21990;42.540;23.496;2023-03-16T09:28:41;93052.13;;;2.91;83.20
35888;BME280;21990;42.540;23.496;2023-03-16T09:31:08;93045.56;;;2.94;82.81
35888;BME280;21990;42.540;23.496;2023-03-16T09:33:34;93058.00;;;3.04;82.08
35888;BME280;21990;42.540;23.496;2023-03-16T09:36:00;93049.44;;;3.07;81.38
35888;BME280;21990;42.540;23.496;2023-03-16T09:38:27;93050.47;;;3.10;82.34
35888;BME280;21990;42.540;23.496;2023-03-16T09:46:58;93065.44;;;3.18;81.20
35888;BME280;21990;42.540;23.496;2023-03-16T09:49:27;93056.38;;;3.23;79.43
35888;BME280;21990;42.540;23.496;2023-03-16T09:55:06;93067.28;;;3.26;79.04
35888;BME280;21990;42.540;23.496;2023-03-16T09:57:40;93065.97;;;3.22;79.31
35888;BME280;21990;42.540;23.496;2023-03-16T10:00:21;93073.09;;;3.28;78.63
35888;BME280;21990;42.540;23.496;2023-03-16T10:05:14;93069.25;;;3.20;78.44
35888;BME280;21990;42.540;23.496;2023-03-16T10:13:01;93073.97;;;3.03;78.88
35888;BME280;21990;42.540;23.496;2023-03-16T10:15:31;93074.50;;;3.07;78.38
35888;BME280;21990;42.540;23.496;2023-03-16T10:18:08;93070.38;;;2.97;78.83
35888;BME280;21990;42.540;23.496;2023-03-16T10:20:37;93071.38;;;3.00;78.81
35888;BME280;21990;42.540;23.496;2023-03-16T10:23:17;93068.94;;;3.07;78.43
35888;BME280;21990;42.540;23.496;2023-03-16T10:25:51;93066.94;;;3.13;79.27
35888;BME280;21990;42.540;23.496;2023-03-16T10:28:25;93065.44;;;3.18;78.24
35888;BME280;21990;42.540;23.496;2023-03-16T10:30:53;93066.75;;;3.22;78.44
35888;BME280;21990;42.540;23.496;2023-03-16T10:33:29;93064.00;;;3.33;77.79
35888;BME280;21990;42.540;23.496;2023-03-16T10:36:34;93063.22;;;3.27;77.64
35888;BME280;21990;42.540;23.496;2023-03-16T10:41:32;93079.91;;;3.27;79.21
35888;BME280;21990;42.540;23.496;2023-03-16T10:44:10;93082.47;;;3.31;79.01
35888;BME280;21990;42.540;23.496;2023-03-16T10:46:42;93081.19;;;3.26;79.79
35888;BME280;21990;42.540;23.496;2023-03-16T10:49:20;93078.94;;;3.36;79.48
35888;BME280;21990;42.540;23.496;2023-03-16T10:51:46;93084.31;;;3.45;78.98
35888;BME280;21990;42.540;23.496;2023-03-16T10:54:16;93087.13;;;3.51;79.46
35888;BME280;21990;42.540;23.496;2023-03-16T10:56:44;93086.16;;;3.54;78.72
35888;BME280;21990;42.540;23.496;2023-03-16T10:59:15;93079.81;;;3.59;78.79
35888;BME280;21990;42.540;23.496;2023-03-16T11:01:44;93082.34;;;3.57;79.46
35888;BME280;21990;42.540;23.496;2023-03-16T11:04:13;93078.38;;;3.69;78.70
35888;BME280;21990;42.540;23.496;2023-03-16T11:06:50;93071.28;;;3.73;78.09
35888;BME280;21990;42.540;23.496;2023-03-16T11:09:25;93073.84;;;3.77;77.90
35888;BME280;21990;42.540;23.496;2023-03-16T11:11:56;93072.03;;;3.74;77.77
35888;BME280;21990;42.540;23.496;2023-03-16T11:14:25;93071.75;;;3.66;78.17
35888;BME280;21990;42.540;23.496;2023-03-16T11:17:15;93072.78;;;3.69;77.81
35888;BME280;21990;42.540;23.496;2023-03-16T11:20:03;93072.03;;;3.74;77.96
35888;BME280;21990;42.540;23.496;2023-03-16T11:22:37;93070.53;;;3.73;78.72
35888;BME280;21990;42.540;23.496;2023-03-16T11:28:05;93062.94;;;3.79;77.93
35888;BME280;21990;42.540;23.496;2023-03-16T11:30:43;93068.50;;;3.73;78.37
35888;BME280;21990;42.540;23.496;2023-03-16T11:33:12;93064.19;;;3.78;78.29
35888;BME280;21990;42.540;23.496;2023-03-16T11:36:04;93069.75;;;3.72;77.77
35888;BME280;21990;42.540;23.496;2023-03-16T11:41:09;93064.91;;;3.67;78.13
35888;BME280;21990;42.540;23.496;2023-03-16T12:00:36;93068.22;;;3.71;77.98
35888;BME280;21990;42.540;23.496;2023-03-16T12:17:03;93078.81;;;3.56;77.69
35888;BME280;21990;42.540;23.496;2023-03-16T12:20:18;93076.50;;;3.55;78.19
35888;BME280;21990;42.540;23.496;2023-03-16T12:22:19;93082.31;;;3.51;77.84
35888;BME280;21990;42.540;23.496;2023-03-16T12:24:48;93075.00;;;3.54;78.25
35888;BME280;21990;42.540;23.496;2023-03-16T12:27:34;93070.94;;;3.49;77.57
35888;BME280;21990;42.540;23.496;2023-03-16T12:32:48;93088.13;;;3.42;78.29
35888;BME280;21990;42.540;23.496;2023-03-16T12:35:45;93091.34;;;3.35;79.28
35888;BME280;21990;42.540;23.496;2023-03-16T12:38:26;93092.88;;;3.36;79.35
35888;BME280;21990;42.540;23.496;2023-03-16T12:44:21;93095.13;;;3.32;79.34
35888;BME280;21990;42.540;23.496;2023-03-16T12:47:06;93091.03;;;3.22;79.71
35888;BME280;21990;42.540;23.496;2023-03-16T12:49:36;93098.84;;;3.18;79.75
35888;BME280;21990;42.540;23.496;2023-03-16T12:52:08;93101.63;;;3.18;79.85
35888;BME280;21990;42.540;23.496;2023-03-16T12:54:34;93094.53;;;3.17;79.40
35888;BME280;21990;42.540;23.496;2023-03-16T12:57:02;93106.38;;;3.12;80.26
35888;BME280;21990;42.540;23.496;2023-03-16T12:59:39;93104.91;;;3.16;80.01
35888;BME280;21990;42.540;23.496;2023-03-16T13:02:30;93112.63;;;2.96;80.03
35888;BME280;21990;42.540;23.496;2023-03-16T13:05:06;93117.97;;;2.99;80.56
35888;BME280;21990;42.540;23.496;2023-03-16T13:07:33;93110.28;;;2.88;80.34
35888;BME280;21990;42.540;23.496;2023-03-16T13:10:00;93114.91;;;2.97;80.45
35888;BME280;21990;42.540;23.496;2023-03-16T13:12:31;93124.47;;;2.91;80.22
35888;BME280;21990;42.540;23.496;2023-03-16T13:15:02;93126.75;;;2.92;80.73
35888;BME280;21990;42.540;23.496;2023-03-16T13:17:41;93126.03;;;2.97;81.39
35888;BME280;21990;42.540;23.496;2023-03-16T13:23:06;93132.63;;;3.00;81.34
35888;BME280;21990;42.540;23.496;2023-03-16T13:25:41;93146.81;;;3.02;81.85
35888;BME280;21990;42.540;23.496;2023-03-16T13:28:14;93145.81;;;3.05;82.28
35888;BME280;21990;42.540;23.496;2023-03-16T13:30:48;93149.66;;;3.07;82.37
35888;BME280;21990;42.540;23.496;2023-03-16T13:35:46;93153.63;;;3.01;83.32
35888;BME280;21990;42.540;23.496;2023-03-16T13:38:14;93158.66;;;2.97;83.83
35888;BME280;21990;42.540;23.496;2023-03-16T13:40:45;93156.88;;;2.94;83.80
35888;BME280;21990;42.540;23.496;2023-03-16T13:43:16;93154.53;;;2.86;83.40
35888;BME280;21990;42.540;23.496;2023-03-16T13:45:43;93163.59;;;2.81;84.12
35888;BME280;21990;42.540;23.496;2023-03-16T13:48:15;93159.56;;;2.82;84.24
35888;BME280;21990;42.540;23.496;2023-03-16T13:50:42;93155.00;;;2.79;85.48
35888;BME280;21990;42.540;23.496;2023-03-16T13:53:18;93157.22;;;2.75;85.44
35888;BME280;21990;42.540;23.496;2023-03-16T13:55:46;93160.78;;;2.76;85.63
35888;BME280;21990;42.540;23.496;2023-03-16T13:58:25;93172.66;;;2.76;86.05
35888;BME280;21990;42.540;23.496;2023-03-16T14:00:55;93175.66;;;2.73;85.99
35888;BME280;21990;42.540;23.496;2023-03-16T14:03:21;93168.28;;;2.70;85.81
35888;BME280;21990;42.540;23.496;2023-03-16T14:05:48;93166.03;;;2.68;86.55
35888;BME280;21990;42.540;23.496;2023-03-16T14:08:23;93172.94;;;2.78;86.20
35888;BME280;21990;42.540;23.496;2023-03-16T14:10:53;93166.16;;;2.85;86.53
35888;BME280;21990;42.540;23.496;2023-03-16T14:13:31;93184.91;;;2.90;86.34
35888;BME280;21990;42.540;23.496;2023-03-16T14:18:39;93175.91;;;3.01;86.71
35888;BME280;21990;42.540;23.496;2023-03-16T14:21:29;93178.69;;;3.01;85.47
35888;BME280;21990;42.540;23.496;2023-03-16T14:24:04;93177.44;;;3.02;87.43
35888;BME280;21990;42.540;23.496;2023-03-16T14:26:44;93174.34;;;2.94;86.83
35888;BME280;21990;42.540;23.496;2023-03-16T14:29:29;93183.69;;;2.97;87.26
35888;BME280;21990;42.540;23.496;2023-03-16T14:31:56;93185.09;;;2.81;86.82